Time;durP1;ratioP1;P1;durP2;ratioP2;P2;SDS_P1;SDS_P2;PMS_P1;PMS_P2;Temp;Humidity;BMP_temperature;BMP_pressure;BME280_temperature;BME280_humidity;BME280_pressure;Samples;Min_cycle;Max_cycle;Signal;HPM_P1;HPM_P2
2022/03/28 00:00:38;;;;;;;53.97;29.98;;;;;;;;;;2088554;28;20168;-52
2022/03/28 00:01:38;;;;;;;70.13;37.60;;;;;;;;;;2073131;28;20176;-57
2022/03/28 00:02:41;;;;;;;51.78;31.13;;;;;;;;;;2076889;28;20192;-56
2022/03/28 00:03:41;;;;;;;48.20;30.30;;;;;;;;;;2078905;28;20193;-54
2022/03/28 00:04:41;;;;;;;68.67;39.67;;;;;;;;;;2080744;28;20196;-54
2022/03/28 00:05:42;;;;;;;72.33;40.10;;;;;;;;;;2080795;28;20713;-55
2022/03/28 00:06:42;;;;;;;55.13;33.37;;;;;;;;;;2080161;28;20518;-53
2022/03/28 00:07:42;;;;;;;82.70;42.65;;;;;;;;;;2079980;28;20184;-56
2022/03/28 00:08:43;;;;;;;79.73;45.67;;;;;;;;;;2072335;28;20177;-54
2022/03/28 00:09:43;;;;;;;63.27;36.50;;;;;;;;;;2073452;28;20303;-54
2022/03/28 00:10:43;;;;;;;44.17;28.47;;;;;;;;;;2079266;28;20165;-56
2022/03/28 00:11:43;;;;;;;45.83;28.93;;;;;;;;;;2078544;28;20176;-56
2022/03/28 00:12:44;;;;;;;45.60;28.37;;;;;;;;;;2079514;28;20169;-53
2022/03/28 00:13:44;;;;;;;61.45;33.60;;;;;;;;;;2079043;28;20637;-55
2022/03/28 00:14:45;;;;;;;91.63;49.53;;;;;;;;;;2078111;28;20183;-54
2022/03/28 00:15:45;;;;;;;69.93;38.23;;;;;;;;;;2078794;28;20200;-53
2022/03/28 00:16:45;;;;;;;69.77;37.73;;;;;;;;;;2073159;28;20180;-58
2022/03/28 00:17:45;;;;;;;85.17;46.53;;;;;;;;;;2079788;28;20258;-57
2022/03/28 00:18:45;;;;;;;61.88;36.75;;;;;;;;;;2080644;28;20262;-55
2022/03/28 00:19:46;;;;;;;50.65;30.63;;;;;;;;;;2075619;28;20188;-56
2022/03/28 00:20:46;;;;;;;49.57;31.00;;;;;;;;;;2083007;28;20176;-54
2022/03/28 00:21:47;;;;;;;55.63;32.80;;;;;;;;;;2082141;28;20238;-53
2022/03/28 00:22:47;;;;;;;118.60;64.60;;;;;;;;;;2082332;28;20661;-52
2022/03/28 00:23:47;;;;;;;116.00;63.83;;;;;;;;;;2079911;28;20172;-54
2022/03/28 00:24:48;;;;;;;89.63;48.67;;;;;;;;;;2074415;28;20249;-54
2022/03/28 00:25:48;;;;;;;68.18;38.38;;;;;;;;;;2074369;28;20193;-56
2022/03/28 00:26:48;;;;;;;56.17;34.30;;;;;;;;;;2076814;28;20184;-56
2022/03/28 00:27:49;;;;;;;63.35;37.28;;;;;;;;;;2080243;28;20534;-54
2022/03/28 00:28:49;;;;;;;62.07;35.97;;;;;;;;;;2083436;28;20629;-55
2022/03/28 00:29:49;;;;;;;54.50;33.47;;;;;;;;;;2089390;28;20574;-54
2022/03/28 00:30:50;;;;;;;63.50;36.33;;;;;;;;;;2081004;28;20171;-57
2022/03/28 00:31:52;;;;;;;50.38;31.02;;;;;;;;;;2076024;28;20180;-51
2022/03/28 00:32:52;;;;;;;50.55;29.83;;;;;;;;;;2077027;28;20286;-55
2022/03/28 00:33:52;;;;;;;48.30;29.55;;;;;;;;;;2076225;28;20256;-55
2022/03/28 00:34:53;;;;;;;53.37;30.73;;;;;;;;;;2081658;28;20572;-54
2022/03/28 00:37:07;;;;;;;50.20;29.60;;;;;;;;;;2092834;28;20198;-64
2022/03/28 00:38:08;;;;;;;48.60;30.77;;;;;;;;;;2096426;28;20176;-64
2022/03/28 00:39:08;;;;;;;44.10;29.27;;;;;;;;;;2086945;28;20657;-65
2022/03/28 00:40:09;;;;;;;52.95;30.90;;;;;;;;;;2081769;28;20270;-64
2022/03/28 00:41:09;;;;;;;56.13;30.83;;;;;;;;;;2085058;28;20216;-63
2022/03/28 00:42:11;;;;;;;50.20;30.97;;;;;;;;;;2091013;28;20184;-64
2022/03/28 00:43:11;;;;;;;52.53;31.20;;;;;;;;;;2087585;28;20211;-62
2022/03/28 00:44:12;;;;;;;53.17;29.07;;;;;;;;;;2086511;28;20665;-57
2022/03/28 00:45:12;;;;;;;52.43;28.43;;;;;;;;;;2091060;28;20195;-63
2022/03/28 00:46:13;;;;;;;51.87;28.87;;;;;;;;;;2091992;28;20179;-63
2022/03/28 00:47:13;;;;;;;52.33;32.77;;;;;;;;;;2101237;28;20201;-65
2022/03/28 00:48:13;;;;;;;59.28;31.05;;;;;;;;;;2098178;28;20255;-63
2022/03/28 00:49:14;;;;;;;47.97;30.77;;;;;;;;;;2095274;28;20675;-62
2022/03/28 00:50:14;;;;;;;53.13;31.73;;;;;;;;;;2096255;28;20199;-62
2022/03/28 00:51:15;;;;;;;47.37;29.40;;;;;;;;;;2102587;28;20729;-64
2022/03/28 00:52:16;;;;;;;50.13;30.30;;;;;;;;;;2098313;28;20186;-67
2022/03/28 00:53:16;;;;;;;46.40;29.67;;;;;;;;;;2101121;28;20234;-64
2022/03/28 00:54:16;;;;;;;49.53;30.17;;;;;;;;;;2095892;28;20191;-66
2022/03/28 00:55:17;;;;;;;53.37;30.57;;;;;;;;;;2086771;28;20764;-63
2022/03/28 00:56:17;;;;;;;47.03;30.23;;;;;;;;;;2089568;28;20263;-61
2022/03/28 00:57:17;;;;;;;49.67;29.80;;;;;;;;;;2103330;28;20221;-63
2022/03/28 00:58:18;;;;;;;52.70;30.20;;;;;;;;;;2097021;28;20278;-66
2022/03/28 00:59:18;;;;;;;49.17;31.37;;;;;;;;;;2096186;28;20209;-62
2022/03/28 01:00:18;;;;;;;55.67;31.27;;;;;;;;;;2096371;28;20175;-67
2022/03/28 01:01:19;;;;;;;52.80;30.87;;;;;;;;;;2087864;28;20279;-65
2022/03/28 01:02:19;;;;;;;43.93;28.80;;;;;;;;;;2077318;28;20180;-63
2022/03/28 01:03:19;;;;;;;47.92;30.27;;;;;;;;;;2085432;28;20192;-65
2022/03/28 01:04:19;;;;;;;44.60;29.73;;;;;;;;;;2092364;28;20188;-63
2022/03/28 01:05:20;;;;;;;47.73;28.80;;;;;;;;;;2090713;28;20259;-62
2022/03/28 01:06:20;;;;;;;43.97;29.10;;;;;;;;;;2092062;28;20207;-62
2022/03/28 01:07:21;;;;;;;43.43;29.27;;;;;;;;;;2097249;28;20171;-64
2022/03/28 01:08:22;;;;;;;49.53;29.57;;;;;;;;;;2099002;28;20186;-60
2022/03/28 01:09:22;;;;;;;43.83;27.87;;;;;;;;;;2085136;28;20479;-61
2022/03/28 01:10:23;;;;;;;44.23;28.30;;;;;;;;;;2081784;28;20196;-61
2022/03/28 01:11:25;;;;;;;47.92;27.77;;;;;;;;;;2093819;28;20558;-64
2022/03/28 01:12:25;;;;;;;47.20;27.17;;;;;;;;;;2092107;28;20175;-61
2022/03/28 01:13:26;;;;;;;48.80;27.90;;;;;;;;;;2099636;28;20190;-64
2022/03/28 01:14:26;;;;;;;50.37;30.33;;;;;;;;;;2083427;28;20192;-64
2022/03/28 01:15:27;;;;;;;44.30;28.20;;;;;;;;;;2083280;28;20172;-63
2022/03/28 01:16:31;;;;;;;48.63;28.37;;;;;;;;;;2091071;28;20195;-62
2022/03/28 01:18:50;;;;;;;50.97;30.40;;;;;;;;;;2089302;28;20257;-60
2022/03/28 01:19:51;;;;;;;54.33;30.77;;;;;;;;;;2085808;28;20172;-64
2022/03/28 01:20:53;;;;;;;52.57;30.63;;;;;;;;;;2089148;28;20197;-64
2022/03/28 01:21:53;;;;;;;50.37;29.47;;;;;;;;;;2099497;28;20187;-65
2022/03/28 01:22:54;;;;;;;54.03;29.97;;;;;;;;;;2087221;28;20235;-64
2022/03/28 01:23:54;;;;;;;47.47;29.00;;;;;;;;;;2087306;28;20275;-66
2022/03/28 01:24:58;;;;;;;51.90;30.07;;;;;;;;;;2086796;28;20171;-64
2022/03/28 01:25:58;;;;;;;49.23;29.17;;;;;;;;;;2093277;28;20219;-65
2022/03/28 01:26:59;;;;;;;44.33;27.70;;;;;;;;;;2090710;28;20170;-64
2022/03/28 01:28:00;;;;;;;43.53;27.40;;;;;;;;;;2095538;28;20531;-65
2022/03/28 01:29:01;;;;;;;45.70;27.90;;;;;;;;;;2098156;28;20199;-64
2022/03/28 01:30:04;;;;;;;49.53;26.70;;;;;;;;;;2096039;28;20315;-63
2022/03/28 01:31:04;;;;;;;47.47;27.17;;;;;;;;;;2094572;28;20168;-65
2022/03/28 01:32:05;;;;;;;40.37;25.93;;;;;;;;;;2090835;28;20538;-66
2022/03/28 01:33:06;;;;;;;45.20;28.40;;;;;;;;;;2092574;28;20170;-61
2022/03/28 01:34:06;;;;;;;44.13;26.30;;;;;;;;;;2101247;28;20194;-65
2022/03/28 01:35:07;;;;;;;47.27;26.67;;;;;;;;;;2093687;28;20218;-59
2022/03/28 01:36:07;;;;;;;48.87;27.20;;;;;;;;;;2096488;28;20666;-63
2022/03/28 01:37:07;;;;;;;44.33;28.07;;;;;;;;;;2100854;28;20178;-63
2022/03/28 01:38:09;;;;;;;43.43;26.57;;;;;;;;;;2095838;28;20184;-62
2022/03/28 01:39:09;;;;;;;41.07;26.50;;;;;;;;;;2091667;28;20168;-61
2022/03/28 01:40:10;;;;;;;42.50;24.73;;;;;;;;;;2091039;28;20182;-63
2022/03/28 01:41:10;;;;;;;43.43;25.67;;;;;;;;;;2091921;28;20210;-63
2022/03/28 01:42:10;;;;;;;39.73;24.70;;;;;;;;;;2091111;28;20258;-63
2022/03/28 01:43:11;;;;;;;41.13;25.27;;;;;;;;;;2089674;28;20266;-65
2022/03/28 01:44:12;;;;;;;40.17;24.07;;;;;;;;;;2082217;28;20188;-63
2022/03/28 01:45:14;;;;;;;40.77;24.67;;;;;;;;;;2083110;28;20192;-60
2022/03/28 01:46:15;;;;;;;43.87;25.20;;;;;;;;;;2091859;28;20699;-62
2022/03/28 01:47:16;;;;;;;44.80;25.27;;;;;;;;;;2091203;28;20191;-64
2022/03/28 01:48:17;;;;;;;40.07;25.30;;;;;;;;;;2091187;28;20176;-63
2022/03/28 01:49:18;;;;;;;37.83;25.03;;;;;;;;;;2089544;28;20202;-63
2022/03/28 01:50:19;;;;;;;39.70;24.93;;;;;;;;;;2093759;28;20239;-62
2022/03/28 01:51:19;;;;;;;40.73;25.03;;;;;;;;;;2090831;28;20168;-65
2022/03/28 01:52:19;;;;;;;44.57;26.07;;;;;;;;;;2095971;28;20558;-64
2022/03/28 01:53:19;;;;;;;44.57;26.43;;;;;;;;;;2093694;28;20175;-64
2022/03/28 01:54:20;;;;;;;39.13;25.13;;;;;;;;;;2092274;28;20190;-63
2022/03/28 01:55:20;;;;;;;41.70;26.53;;;;;;;;;;2091728;28;20262;-63
2022/03/28 01:56:20;;;;;;;49.60;26.97;;;;;;;;;;2084749;28;20219;-63
2022/03/28 01:57:21;;;;;;;47.93;27.30;;;;;;;;;;2084049;28;20183;-63
2022/03/28 01:58:21;;;;;;;50.60;27.30;;;;;;;;;;2099577;28;20200;-62
2022/03/28 01:59:21;;;;;;;42.97;27.13;;;;;;;;;;2100880;28;20170;-62
2022/03/28 02:00:28;;;;;;;44.50;25.67;;;;;;;;;;2096443;28;20309;-64
2022/03/28 02:01:28;;;;;;;44.10;25.23;;;;;;;;;;2092114;28;20255;-64
2022/03/28 02:02:29;;;;;;;40.30;25.23;;;;;;;;;;2098615;28;20179;-64
2022/03/28 02:03:29;;;;;;;44.60;27.80;;;;;;;;;;2097846;28;20225;-63
2022/03/28 02:04:32;;;;;;;41.00;25.87;;;;;;;;;;2090369;28;20561;-62
2022/03/28 02:05:32;;;;;;;46.53;25.53;;;;;;;;;;2084134;28;20192;-62
2022/03/28 02:06:35;;;;;;;44.87;25.23;;;;;;;;;;2091964;28;20209;-62
2022/03/28 02:07:35;;;;;;;56.67;27.13;;;;;;;;;;2092056;28;20183;-62
2022/03/28 02:08:36;;;;;;;49.47;25.57;;;;;;;;;;2092534;28;20164;-62
2022/03/28 02:09:36;;;;;;;49.27;27.13;;;;;;;;;;2091859;28;20195;-64
2022/03/28 02:10:36;;;;;;;51.03;28.80;;;;;;;;;;2091598;28;20191;-67
2022/03/28 02:11:36;;;;;;;49.17;26.90;;;;;;;;;;2091251;28;20231;-63
2022/03/28 02:12:37;;;;;;;47.97;27.37;;;;;;;;;;2093943;28;20198;-64
2022/03/28 02:13:37;;;;;;;46.53;27.50;;;;;;;;;;2081410;28;20182;-62
2022/03/28 02:14:37;;;;;;;47.87;28.30;;;;;;;;;;2081266;28;20168;-64
2022/03/28 02:15:37;;;;;;;43.40;27.13;;;;;;;;;;2090202;28;20234;-62
2022/03/28 02:16:38;;;;;;;56.77;25.83;;;;;;;;;;2089834;28;20678;-64
2022/03/28 02:17:38;;;;;;;44.87;24.87;;;;;;;;;;2090560;28;20254;-63
2022/03/28 02:18:39;;;;;;;49.53;26.20;;;;;;;;;;2081333;28;20173;-64
2022/03/28 02:19:39;;;;;;;45.03;25.90;;;;;;;;;;2081446;28;20532;-63
2022/03/28 02:20:40;;;;;;;49.23;26.27;;;;;;;;;;2089958;28;20218;-62
2022/03/28 02:21:40;;;;;;;48.27;26.23;;;;;;;;;;2090239;28;20176;-63
2022/03/28 02:22:41;;;;;;;46.63;26.57;;;;;;;;;;2090135;28;20171;-62
2022/03/28 02:23:41;;;;;;;48.60;25.93;;;;;;;;;;2089714;28;20184;-63
2022/03/28 02:24:42;;;;;;;47.63;25.17;;;;;;;;;;2088648;28;20542;-63
2022/03/28 02:25:42;;;;;;;44.23;25.33;;;;;;;;;;2083969;28;20176;-62
2022/03/28 02:26:42;;;;;;;42.37;24.50;;;;;;;;;;2095701;28;20197;-62
2022/03/28 02:27:43;;;;;;;41.37;24.17;;;;;;;;;;2096152;28;20522;-64
2022/03/28 02:28:43;;;;;;;47.30;25.53;;;;;;;;;;2087524;28;20641;-64
2022/03/28 02:29:43;;;;;;;37.00;21.97;;;;;;;;;;2082725;28;20184;-65
2022/03/28 02:30:44;;;;;;;39.37;23.27;;;;;;;;;;2079603;28;20173;-64
2022/03/28 02:31:44;;;;;;;35.93;21.50;;;;;;;;;;2093600;28;20196;-65
2022/03/28 02:32:44;;;;;;;41.97;21.60;;;;;;;;;;2098071;28;20194;-63
2022/03/28 02:33:44;;;;;;;38.77;22.93;;;;;;;;;;2092604;28;20180;-62
2022/03/28 02:34:45;;;;;;;40.43;21.17;;;;;;;;;;2092462;28;20223;-61
2022/03/28 02:35:45;;;;;;;33.00;20.57;;;;;;;;;;2099267;28;20191;-63
2022/03/28 02:36:46;;;;;;;41.57;19.17;;;;;;;;;;2091749;28;20771;-65
2022/03/28 02:37:47;;;;;;;34.17;20.10;;;;;;;;;;2099748;28;20670;-65
2022/03/28 02:38:47;;;;;;;40.07;20.37;;;;;;;;;;2092478;28;20203;-64
2022/03/28 02:39:47;;;;;;;35.03;20.27;;;;;;;;;;2091205;28;20751;-61
2022/03/28 02:40:48;;;;;;;33.80;18.87;;;;;;;;;;2081202;28;20175;-62
2022/03/28 02:41:48;;;;;;;32.00;18.47;;;;;;;;;;2089964;28;20205;-62
2022/03/28 02:42:49;;;;;;;30.93;18.33;;;;;;;;;;2084240;28;20196;-65
2022/03/28 02:43:49;;;;;;;32.67;18.17;;;;;;;;;;2087655;28;20305;-62
2022/03/28 02:44:51;;;;;;;30.90;17.77;;;;;;;;;;2088398;28;20232;-62
2022/03/28 02:45:51;;;;;;;32.83;17.73;;;;;;;;;;2092601;28;20764;-60
2022/03/28 02:46:51;;;;;;;31.70;18.03;;;;;;;;;;2090416;28;20244;-62
2022/03/28 02:47:52;;;;;;;31.50;18.13;;;;;;;;;;2090471;28;20188;-64
2022/03/28 02:48:52;;;;;;;38.03;18.63;;;;;;;;;;2093536;28;20180;-63
2022/03/28 02:49:52;;;;;;;30.57;17.13;;;;;;;;;;2097970;28;20206;-62
2022/03/28 02:50:52;;;;;;;32.83;18.37;;;;;;;;;;2098870;28;20217;-67
2022/03/28 02:51:53;;;;;;;38.70;18.70;;;;;;;;;;2083117;28;20164;-66
2022/03/28 02:52:53;;;;;;;33.70;18.43;;;;;;;;;;2082326;28;20271;-63
2022/03/28 02:53:53;;;;;;;38.53;18.83;;;;;;;;;;2093193;28;20176;-58
2022/03/28 02:54:54;;;;;;;34.80;20.03;;;;;;;;;;2086826;28;20543;-61
2022/03/28 02:55:54;;;;;;;35.83;19.33;;;;;;;;;;2080948;28;20187;-61
2022/03/28 02:56:55;;;;;;;35.87;20.67;;;;;;;;;;2078482;28;20179;-65
2022/03/28 02:57:55;;;;;;;32.47;20.10;;;;;;;;;;2084309;28;20203;-63
2022/03/28 02:58:55;;;;;;;33.87;19.10;;;;;;;;;;2092432;28;20256;-62
2022/03/28 02:59:55;;;;;;;32.20;20.70;;;;;;;;;;2091691;28;20178;-64
2022/03/28 03:00:56;;;;;;;35.97;20.03;;;;;;;;;;2090722;28;20211;-62
2022/03/28 03:01:56;;;;;;;36.13;20.13;;;;;;;;;;2090741;28;20179;-60
2022/03/28 03:02:57;;;;;;;34.43;19.83;;;;;;;;;;2090231;28;20179;-64
2022/03/28 03:03:57;;;;;;;31.03;18.60;;;;;;;;;;2091557;28;20175;-62
2022/03/28 03:04:58;;;;;;;34.57;18.70;;;;;;;;;;2090934;28;20195;-62
2022/03/28 03:05:58;;;;;;;33.90;20.53;;;;;;;;;;2091584;28;20544;-64
2022/03/28 03:06:58;;;;;;;40.20;21.37;;;;;;;;;;2090186;28;20231;-62
2022/03/28 03:07:59;;;;;;;33.10;20.43;;;;;;;;;;2088957;28;20173;-61
2022/03/28 03:08:59;;;;;;;30.17;20.50;;;;;;;;;;2081732;28;20641;-60
2022/03/28 03:09:59;;;;;;;35.40;20.37;;;;;;;;;;2088764;28;20361;-61
2022/03/28 03:10:59;;;;;;;34.07;19.90;;;;;;;;;;2094293;28;20167;-63
2022/03/28 03:12:00;;;;;;;31.30;19.30;;;;;;;;;;2080478;28;20164;-62
2022/03/28 03:13:00;;;;;;;37.80;18.73;;;;;;;;;;2080337;28;20203;-62
2022/03/28 03:14:02;;;;;;;38.00;20.87;;;;;;;;;;2089492;28;20179;-59
2022/03/28 03:15:03;;;;;;;35.70;20.37;;;;;;;;;;2089423;28;20717;-61
2022/03/28 03:16:04;;;;;;;38.50;20.27;;;;;;;;;;2089351;28;20245;-62
2022/03/28 03:17:04;;;;;;;42.17;21.77;;;;;;;;;;2086941;28;20180;-61
2022/03/28 03:18:04;;;;;;;32.90;20.40;;;;;;;;;;2090490;28;20234;-62
2022/03/28 03:19:05;;;;;;;36.50;21.70;;;;;;;;;;2083187;28;20183;-60
2022/03/28 03:20:06;;;;;;;36.00;21.23;;;;;;;;;;2081889;28;20184;-62
2022/03/28 03:21:06;;;;;;;35.87;20.00;;;;;;;;;;2095193;28;20258;-60
2022/03/28 03:22:07;;;;;;;32.60;21.07;;;;;;;;;;2090733;28;20249;-63
2022/03/28 03:23:08;;;;;;;38.23;20.60;;;;;;;;;;2092767;28;20187;-64
2022/03/28 03:24:08;;;;;;;40.97;19.70;;;;;;;;;;2093811;28;20179;-61
2022/03/28 03:25:08;;;;;;;38.73;21.87;;;;;;;;;;2093065;28;20239;-61
2022/03/28 03:26:09;;;;;;;39.60;21.73;;;;;;;;;;2094523;28;20171;-62
2022/03/28 03:27:09;;;;;;;39.87;21.47;;;;;;;;;;2093308;28;20497;-62
2022/03/28 03:28:10;;;;;;;36.10;19.43;;;;;;;;;;2089794;28;20246;-63
2022/03/28 03:29:11;;;;;;;36.43;20.43;;;;;;;;;;2087647;28;20168;-61
2022/03/28 03:30:11;;;;;;;41.00;21.43;;;;;;;;;;2091489;28;20688;-62
2022/03/28 03:31:12;;;;;;;42.83;21.23;;;;;;;;;;2092401;28;20256;-60
2022/03/28 03:32:12;;;;;;;37.03;19.47;;;;;;;;;;2089938;28;20233;-61
2022/03/28 03:33:12;;;;;;;34.20;21.17;;;;;;;;;;2087327;28;20172;-63
2022/03/28 03:34:12;;;;;;;40.67;20.70;;;;;;;;;;2094624;28;20175;-61
2022/03/28 03:35:13;;;;;;;38.00;21.03;;;;;;;;;;2092173;28;20207;-63
2022/03/28 03:36:13;;;;;;;34.00;19.27;;;;;;;;;;2089244;28;20180;-62
2022/03/28 03:37:14;;;;;;;37.77;19.87;;;;;;;;;;2089923;28;20229;-63
2022/03/28 03:38:14;;;;;;;37.80;19.93;;;;;;;;;;2076816;28;20173;-63
2022/03/28 03:39:14;;;;;;;37.27;20.03;;;;;;;;;;2083537;28;20183;-60
2022/03/28 03:40:14;;;;;;;36.03;19.90;;;;;;;;;;2092180;28;20207;-62
2022/03/28 03:41:14;;;;;;;32.90;20.27;;;;;;;;;;2089577;28;20555;-60
2022/03/28 03:42:15;;;;;;;37.77;20.97;;;;;;;;;;2084223;28;20195;-64
2022/03/28 03:43:15;;;;;;;38.03;20.20;;;;;;;;;;2092536;28;20178;-61
2022/03/28 03:44:15;;;;;;;35.20;19.30;;;;;;;;;;2090938;28;20187;-63
2022/03/28 03:45:15;;;;;;;36.20;20.27;;;;;;;;;;2092545;28;20183;-61
2022/03/28 03:46:16;;;;;;;37.40;18.33;;;;;;;;;;2090679;28;20191;-64
2022/03/28 03:47:16;;;;;;;34.00;18.20;;;;;;;;;;2094842;28;20795;-61
2022/03/28 03:48:18;;;;;;;33.57;20.30;;;;;;;;;;2080879;28;20263;-62
2022/03/28 03:49:19;;;;;;;36.87;19.67;;;;;;;;;;2080478;28;20176;-60
2022/03/28 03:50:19;;;;;;;36.00;19.53;;;;;;;;;;2089898;28;20284;-62
2022/03/28 03:51:19;;;;;;;36.23;19.03;;;;;;;;;;2095406;28;20667;-62
2022/03/28 03:52:20;;;;;;;34.23;18.90;;;;;;;;;;2088401;28;20202;-63
2022/03/28 03:53:20;;;;;;;31.27;18.10;;;;;;;;;;2085713;28;20199;-64
2022/03/28 03:54:20;;;;;;;35.67;18.47;;;;;;;;;;2078081;28;20176;-62
2022/03/28 03:55:21;;;;;;;31.27;17.60;;;;;;;;;;2088254;28;20167;-64
2022/03/28 03:56:21;;;;;;;37.87;18.53;;;;;;;;;;2095623;28;20265;-63
2022/03/28 03:57:21;;;;;;;38.77;19.47;;;;;;;;;;2090726;28;20167;-60
2022/03/28 03:58:22;;;;;;;32.97;19.33;;;;;;;;;;2082119;28;20622;-63
2022/03/28 03:59:22;;;;;;;35.20;17.93;;;;;;;;;;2084516;28;20245;-61
2022/03/28 04:00:23;;;;;;;33.80;18.03;;;;;;;;;;2090989;28;20172;-59
2022/03/28 04:01:23;;;;;;;36.60;17.13;;;;;;;;;;2093026;28;20211;-62
2022/03/28 04:02:24;;;;;;;35.83;18.87;;;;;;;;;;2083523;28;20244;-60
2022/03/28 04:03:24;;;;;;;30.07;17.27;;;;;;;;;;2082325;28;20184;-62
2022/03/28 04:04:24;;;;;;;37.30;18.97;;;;;;;;;;2080212;28;20719;-63
2022/03/28 04:05:25;;;;;;;35.30;18.33;;;;;;;;;;2080250;28;20645;-61
2022/03/28 04:06:25;;;;;;;35.63;18.43;;;;;;;;;;2088144;28;20211;-63
2022/03/28 04:07:25;;;;;;;30.50;17.47;;;;;;;;;;2092215;28;20178;-60
2022/03/28 04:08:26;;;;;;;37.93;20.30;;;;;;;;;;2096472;28;20209;-60
2022/03/28 04:09:26;;;;;;;42.20;19.23;;;;;;;;;;2090146;28;20176;-60
2022/03/28 04:10:26;;;;;;;32.20;16.87;;;;;;;;;;2096632;28;20298;-61
2022/03/28 04:11:27;;;;;;;31.73;18.33;;;;;;;;;;2090068;28;20203;-58
2022/03/28 04:12:27;;;;;;;35.13;18.40;;;;;;;;;;2080736;28;20176;-63
2022/03/28 04:13:27;;;;;;;36.17;19.53;;;;;;;;;;2079770;28;20203;-60
2022/03/28 04:14:28;;;;;;;33.00;17.73;;;;;;;;;;2096489;28;20206;-62
2022/03/28 04:15:28;;;;;;;37.80;18.50;;;;;;;;;;2084829;28;20260;-59
2022/03/28 04:16:28;;;;;;;38.37;17.93;;;;;;;;;;2095797;28;20198;-63
2022/03/28 04:17:29;;;;;;;37.93;19.27;;;;;;;;;;2089752;28;20179;-60
2022/03/28 04:18:29;;;;;;;41.67;19.23;;;;;;;;;;2087813;28;20187;-59
2022/03/28 04:19:30;;;;;;;39.10;18.43;;;;;;;;;;2080118;28;20179;-61
2022/03/28 04:20:32;;;;;;;29.10;17.40;;;;;;;;;;2071953;28;20188;-65
2022/03/28 04:21:32;;;;;;;32.87;17.87;;;;;;;;;;2080421;28;20176;-61
2022/03/28 04:22:32;;;;;;;37.77;18.87;;;;;;;;;;2089084;28;20196;-61
2022/03/28 04:23:33;;;;;;;33.80;18.47;;;;;;;;;;2088647;28;20178;-60
2022/03/28 04:24:33;;;;;;;37.13;18.47;;;;;;;;;;2079861;28;20172;-57
2022/03/28 04:25:33;;;;;;;36.07;18.03;;;;;;;;;;2087394;28;20637;-60
2022/03/28 04:26:33;;;;;;;40.10;19.27;;;;;;;;;;2096753;28;20264;-60
2022/03/28 04:27:34;;;;;;;36.53;18.17;;;;;;;;;;2079099;28;20177;-58
2022/03/28 04:28:35;;;;;;;36.87;18.80;;;;;;;;;;2084132;28;20180;-56
2022/03/28 04:29:35;;;;;;;33.60;19.00;;;;;;;;;;2097582;28;20204;-63
2022/03/28 04:30:36;;;;;;;34.07;18.17;;;;;;;;;;2079910;28;20200;-59
2022/03/28 04:31:40;;;;;;;33.93;18.87;;;;;;;;;;2078572;28;20660;-61
2022/03/28 04:32:40;;;;;;;37.37;18.67;;;;;;;;;;2085242;28;20180;-60
2022/03/28 04:33:40;;;;;;;29.40;17.40;;;;;;;;;;2093344;28;20218;-61
2022/03/28 04:34:41;;;;;;;35.53;16.80;;;;;;;;;;2087238;28;20649;-62
2022/03/28 04:35:47;;;;;;;30.73;17.83;;;;;;;;;;2091312;28;20186;-65
2022/03/28 04:36:47;;;;;;;25.17;15.87;;;;;;;;;;2094330;28;20210;-61
2022/03/28 04:37:47;;;;;;;36.07;18.00;;;;;;;;;;2094382;28;20174;-61
2022/03/28 04:38:48;;;;;;;33.60;17.93;;;;;;;;;;2090170;28;20687;-63
2022/03/28 04:39:48;;;;;;;28.17;17.80;;;;;;;;;;2093583;28;20184;-61
2022/03/28 04:40:48;;;;;;;29.87;16.93;;;;;;;;;;2086128;28;20223;-61
2022/03/28 04:41:48;;;;;;;34.40;16.10;;;;;;;;;;2079966;28;20580;-60
2022/03/28 04:42:49;;;;;;;31.17;17.03;;;;;;;;;;2079942;28;20176;-62
2022/03/28 04:43:49;;;;;;;36.00;17.90;;;;;;;;;;2080196;28;20192;-62
2022/03/28 04:44:49;;;;;;;34.90;18.37;;;;;;;;;;2085362;28;20264;-61
2022/03/28 04:45:49;;;;;;;30.30;18.03;;;;;;;;;;2091191;28;20183;-63
2022/03/28 04:46:50;;;;;;;32.10;16.90;;;;;;;;;;2088741;28;20179;-63
2022/03/28 04:47:50;;;;;;;28.17;17.07;;;;;;;;;;2082227;28;20207;-61
2022/03/28 04:48:50;;;;;;;30.50;18.23;;;;;;;;;;2086988;28;20233;-62
2022/03/28 04:49:51;;;;;;;29.63;16.40;;;;;;;;;;2075085;28;20212;-62
2022/03/28 04:50:51;;;;;;;35.43;17.83;;;;;;;;;;2082836;28;20176;-65
2022/03/28 04:51:51;;;;;;;34.30;17.27;;;;;;;;;;2087640;28;20207;-60
2022/03/28 04:52:51;;;;;;;29.30;17.60;;;;;;;;;;2095225;28;20237;-65
2022/03/28 04:53:52;;;;;;;40.93;18.37;;;;;;;;;;2095907;28;20195;-56
2022/03/28 04:54:52;;;;;;;25.07;17.27;;;;;;;;;;2089064;28;20186;-64
2022/03/28 04:55:52;;;;;;;31.37;18.23;;;;;;;;;;2090763;28;20331;-62
2022/03/28 04:56:53;;;;;;;32.17;18.80;;;;;;;;;;2085126;28;20196;-59
2022/03/28 04:57:53;;;;;;;33.93;17.37;;;;;;;;;;2086924;28;20213;-61
2022/03/28 04:58:53;;;;;;;30.57;18.80;;;;;;;;;;2085767;28;20621;-62
2022/03/28 04:59:54;;;;;;;31.47;17.13;;;;;;;;;;2089775;28;20187;-62
2022/03/28 05:00:54;;;;;;;32.37;17.57;;;;;;;;;;2083089;28;20184;-61
2022/03/28 05:01:54;;;;;;;32.37;17.37;;;;;;;;;;2086855;28;20188;-59
2022/03/28 05:02:55;;;;;;;30.20;17.00;;;;;;;;;;2087730;28;20258;-63
2022/03/28 05:03:55;;;;;;;25.67;16.20;;;;;;;;;;2080112;28;20184;-65
2022/03/28 05:04:55;;;;;;;36.33;17.53;;;;;;;;;;2077694;28;20172;-62
2022/03/28 05:05:56;;;;;;;28.97;17.43;;;;;;;;;;2092396;28;20171;-62
2022/03/28 05:06:56;;;;;;;34.70;17.87;;;;;;;;;;2093405;28;20219;-62
2022/03/28 05:07:56;;;;;;;35.57;17.97;;;;;;;;;;2095995;28;20181;-63
2022/03/28 05:08:56;;;;;;;30.03;17.17;;;;;;;;;;2095501;28;20182;-61
2022/03/28 05:09:57;;;;;;;34.20;17.90;;;;;;;;;;2099286;28;20183;-63
2022/03/28 05:10:57;;;;;;;31.40;17.43;;;;;;;;;;2095622;28;20167;-61
2022/03/28 05:11:58;;;;;;;29.77;18.07;;;;;;;;;;2098330;28;20183;-63
2022/03/28 05:12:58;;;;;;;33.53;17.70;;;;;;;;;;2096152;28;20167;-63
2022/03/28 05:14:00;;;;;;;26.87;17.70;;;;;;;;;;2096519;28;20235;-57
2022/03/28 05:15:01;;;;;;;30.27;17.47;;;;;;;;;;2096097;28;20163;-62
2022/03/28 05:16:02;;;;;;;30.00;18.33;;;;;;;;;;2087247;28;20218;-59
2022/03/28 05:17:02;;;;;;;29.70;17.47;;;;;;;;;;2083846;28;20168;-63
2022/03/28 05:18:03;;;;;;;30.87;17.60;;;;;;;;;;2087951;28;20165;-63
2022/03/28 05:19:04;;;;;;;28.03;16.30;;;;;;;;;;2084440;28;20195;-60
2022/03/28 05:20:09;;;;;;;32.13;17.57;;;;;;;;;;2087588;28;20179;-62
2022/03/28 05:21:09;;;;;;;27.67;17.80;;;;;;;;;;2091678;28;20221;-62
2022/03/28 05:22:09;;;;;;;28.00;16.60;;;;;;;;;;2095018;28;20724;-62
2022/03/28 05:23:09;;;;;;;25.53;15.47;;;;;;;;;;2085647;28;20169;-66
2022/03/28 05:24:10;;;;;;;24.07;16.07;;;;;;;;;;2080700;28;20656;-63
2022/03/28 05:25:10;;;;;;;20.90;14.93;;;;;;;;;;2091682;28;20218;-59
2022/03/28 05:26:10;;;;;;;24.47;14.97;;;;;;;;;;2095876;28;20179;-62
2022/03/28 05:27:11;;;;;;;21.67;15.27;;;;;;;;;;2095406;28;20573;-61
2022/03/28 05:28:11;;;;;;;22.53;15.10;;;;;;;;;;2085232;28;20174;-58
2022/03/28 05:29:11;;;;;;;26.83;14.27;;;;;;;;;;2086172;28;20215;-61
2022/03/28 05:30:12;;;;;;;19.97;13.77;;;;;;;;;;2091594;28;20298;-62
2022/03/28 05:31:12;;;;;;;20.70;13.63;;;;;;;;;;2091519;28;20195;-60
2022/03/28 05:32:13;;;;;;;19.30;13.73;;;;;;;;;;2096403;28;20175;-64
2022/03/28 05:33:13;;;;;;;19.07;14.03;;;;;;;;;;2091893;28;20183;-59
2022/03/28 05:34:13;;;;;;;20.40;12.73;;;;;;;;;;2089084;28;20215;-60
2022/03/28 05:35:13;;;;;;;17.97;13.43;;;;;;;;;;2093294;28;20227;-64
2022/03/28 05:36:14;;;;;;;17.57;13.03;;;;;;;;;;2091928;28;20195;-64
2022/03/28 05:37:15;;;;;;;23.53;13.47;;;;;;;;;;2091721;28;20172;-62
2022/03/28 05:38:17;;;;;;;16.60;12.83;;;;;;;;;;2092430;28;20221;-63
2022/03/28 05:39:17;;;;;;;14.00;11.97;;;;;;;;;;2090671;28;20175;-64
2022/03/28 05:40:17;;;;;;;18.40;12.83;;;;;;;;;;2090070;28;20225;-61
2022/03/28 05:41:18;;;;;;;27.17;12.60;;;;;;;;;;2092470;28;20191;-63
2022/03/28 05:42:18;;;;;;;17.20;12.23;;;;;;;;;;2092704;28;20244;-61
2022/03/28 05:43:18;;;;;;;20.23;17.40;;;;;;;;;;2097239;28;20251;-63
2022/03/28 05:44:19;;;;;;;13.90;12.03;;;;;;;;;;2089644;28;20187;-61
2022/03/28 05:45:20;;;;;;;14.37;11.60;;;;;;;;;;2089397;28;20184;-63
2022/03/28 05:46:20;;;;;;;14.73;10.67;;;;;;;;;;2090831;28;20206;-63
2022/03/28 05:47:20;;;;;;;24.67;11.53;;;;;;;;;;2090555;28;20856;-63
2022/03/28 05:48:21;;;;;;;12.97;11.53;;;;;;;;;;2091942;28;20242;-62
2022/03/28 05:49:22;;;;;;;12.80;10.20;;;;;;;;;;2088799;28;20188;-62
2022/03/28 05:50:23;;;;;;;15.30;10.67;;;;;;;;;;2093516;28;20235;-60
2022/03/28 05:51:23;;;;;;;14.67;10.37;;;;;;;;;;2092705;28;20187;-64
2022/03/28 05:52:24;;;;;;;12.10;10.80;;;;;;;;;;2080164;28;20180;-62
2022/03/28 05:53:24;;;;;;;16.67;11.13;;;;;;;;;;2076795;28;20177;-60
2022/03/28 05:54:25;;;;;;;16.03;10.07;;;;;;;;;;2093248;28;20682;-60